»·PEaware :: N6182G KAJO-KVCV

N6182G :: KAJO-KVCV

FLIGHT INFORMATION

Flight Status: Arrived
Operator: Privately registered:
United States
More flights under this callsign
Pilot: Thiago S. (19132)
Aircraft: CESSNA 182 SKYLANE
(C182)
More flights by this aircraft type
Origin: KAJO Corona Mun
United States
Destination: KVCV Socal Logistics
United States
More flights between these airports :: More routes between these airports
Route: +PDZ V442 APLES
File this flight plan on PilotEdge
Remarks: I RATING 11
Altitude:
(Current/Filed)
9,000ft
Speed:
(Current/Filed)
120kts
Departed: 24-Feb-19 01:53 PM
Arrived: 24-Feb-19 02:50 PM
Distance/Time
Traveled:
43nm/0:57
Distance/Time
To Go:
Arrived

Flight Plot

Page will automatically refresh every two minutes.


Map Options




Map Legend


Flown Route
Filed Route
Departure Airport
Arrival Airport
Navaid (VOR, NDB)
Fix

Horizontal Profiles

Position Reports

Time Latitude Longitude Heading Altitude Ground
Speed
24-Feb-19 13:31 33.896828 -117.599136 179 536ft 0kts
24-Feb-19 13:32 33.896828 -117.599136 179 536ft 0kts
24-Feb-19 13:33 33.896828 -117.599136 179 536ft 0kts
24-Feb-19 13:34 33.896828 -117.599136 179 536ft 0kts
24-Feb-19 13:35 33.896828 -117.599136 179 536ft 0kts
24-Feb-19 13:36 33.896828 -117.599136 179 536ft 0kts
24-Feb-19 13:37 33.896828 -117.599136 179 536ft 0kts
24-Feb-19 13:38 33.896828 -117.599136 179 536ft 0kts
24-Feb-19 13:39 33.896828 -117.599136 179 536ft 0kts
24-Feb-19 13:40 33.896828 -117.599136 179 536ft 0kts
24-Feb-19 13:41 33.896828 -117.599136 179 536ft 0kts
24-Feb-19 13:42 33.896828 -117.599136 179 536ft 0kts
24-Feb-19 13:42 33.896828 -117.599136 179 536ft 0kts
24-Feb-19 13:43 33.896823 -117.599135 179 536ft 0kts
24-Feb-19 13:45 33.896818 -117.599135 179 536ft 0kts
24-Feb-19 13:46 33.897016 -117.599146 1 536ft 0kts
24-Feb-19 13:46 33.897018 -117.599145 1 536ft 0kts
24-Feb-19 13:47 33.897021 -117.599145 1 536ft 0kts
24-Feb-19 13:48 33.897195 -117.600077 269 536ft 10kts
24-Feb-19 13:49 33.897143 -117.604490 269 536ft 12kts
24-Feb-19 13:50 33.897162 -117.607132 316 536ft 0kts
24-Feb-19 13:51 33.897168 -117.607138 316 536ft 0kts
24-Feb-19 13:52 33.897685 -117.602598 79 556ft 76kts
24-Feb-19 13:53 33.899177 -117.573879 82 1495ft 90kts
24-Feb-19 13:54 33.906461 -117.542319 58 2064ft 107kts
24-Feb-19 13:55 33.928202 -117.516260 39 2561ft 112kts
24-Feb-19 13:56 33.952638 -117.494774 12 3053ft 117kts
24-Feb-19 13:57 33.981271 -117.477665 74 3552ft 128kts
24-Feb-19 13:58 33.958312 -117.463327 231 4045ft 130kts
24-Feb-19 13:59 33.942698 -117.502995 228 4258ft 145kts
24-Feb-19 14:00 33.913013 -117.537545 255 3958ft 147kts
24-Feb-19 14:01 33.936137 -117.549542 40 4487ft 120kts
24-Feb-19 14:02 33.961763 -117.521950 41 5163ft 125kts
24-Feb-19 14:03 33.975085 -117.487311 131 5850ft 133kts
24-Feb-19 14:04 33.943902 -117.497954 223 6549ft 129kts
24-Feb-19 14:05 33.918762 -117.529522 225 7241ft 129kts
24-Feb-19 14:06 33.929803 -117.551900 28 7914ft 110kts
24-Feb-19 14:07 33.952224 -117.525248 42 8527ft 121kts
24-Feb-19 14:08 33.952875 -117.490304 160 8998ft 148kts
24-Feb-19 14:09 33.922498 -117.519421 245 9057ft 162kts
24-Feb-19 14:10 33.934045 -117.554646 19 8982ft 144kts
24-Feb-19 14:11 33.963296 -117.522069 41 8948ft 140kts
24-Feb-19 14:12 33.967076 -117.484807 154 8966ft 148kts
24-Feb-19 14:13 33.934860 -117.507138 233 8973ft 142kts
24-Feb-19 14:14 33.911802 -117.544499 272 8968ft 139kts
24-Feb-19 14:15 33.938480 -117.548146 49 8974ft 137kts
24-Feb-19 14:16 33.954400 -117.507252 65 8962ft 133kts
24-Feb-19 14:17 33.984234 -117.488123 26 8970ft 128kts
24-Feb-19 14:18 34.016759 -117.467478 28 8968ft 141kts
24-Feb-19 14:19 34.052824 -117.444518 27 8961ft 145kts
24-Feb-19 14:20 34.088184 -117.422001 27 8964ft 143kts
24-Feb-19 14:21 34.123733 -117.399347 27 8969ft 142kts
24-Feb-19 14:22 34.158447 -117.377203 27 8981ft 145kts
24-Feb-19 14:23 34.194980 -117.353885 27 8976ft 149kts
24-Feb-19 14:24 34.231629 -117.330478 27 8970ft 143kts
24-Feb-19 14:25 34.265800 -117.308630 27 8985ft 136kts
24-Feb-19 14:26 34.299317 -117.287178 27 8990ft 135kts
24-Feb-19 14:27 34.332725 -117.265783 27 9001ft 139kts
24-Feb-19 14:28 34.367610 -117.243428 27 9007ft 142kts
24-Feb-19 14:29 34.402761 -117.220891 27 9011ft 142kts
24-Feb-19 14:30 34.437735 -117.198443 27 9013ft 140kts
24-Feb-19 14:31 34.472121 -117.176357 27 9014ft 138kts
24-Feb-19 14:32 34.505909 -117.154632 27 9026ft 142kts
24-Feb-19 14:33 34.541932 -117.131447 27 9012ft 142kts
24-Feb-19 14:34 34.578699 -117.116847 13 8912ft 142kts
24-Feb-19 14:35 34.620223 -117.111904 2 8442ft 155kts
24-Feb-19 14:36 34.662312 -117.122501 337 7939ft 157kts
24-Feb-19 14:37 34.695230 -117.155915 299 7424ft 160kts
24-Feb-19 14:38 34.718596 -117.201698 324 6914ft 158kts
24-Feb-19 14:39 34.749419 -117.236523 312 6696ft 153kts
24-Feb-19 14:40 34.774828 -117.277571 306 6607ft 151kts
24-Feb-19 14:41 34.794632 -117.322455 285 6199ft 149kts
24-Feb-19 14:42 34.782843 -117.360066 198 5490ft 131kts
24-Feb-19 14:43 34.749859 -117.369707 186 4772ft 116kts
24-Feb-19 14:44 34.717880 -117.373764 186 4491ft 108kts
24-Feb-19 14:45 34.688866 -117.377550 186 4111ft 101kts
24-Feb-19 14:46 34.663880 -117.381485 188 3974ft 91kts
24-Feb-19 14:47 34.638237 -117.385143 188 3602ft 92kts
24-Feb-19 14:48 34.615950 -117.386701 179 3046ft 66kts
24-Feb-19 14:49 34.601825 -117.386565 179 2854ft 26kts
24-Feb-19 14:50 34.594390 -117.386372 134 2854ft 10kts
24-Feb-19 14:51 34.594290 -117.385641 92 2854ft 0kts

Navigation Log

Ident Type
Flight plan parsing failed, navigation log unavailable